sensor_id;sensor_type;location;lat;lon;timestamp;P1;durP1;ratioP1;P2;durP2;ratioP2
1509;SDS011;746;48.688;9.428;2022-08-01T00:00:59;3.20;;;3.00;;
1509;SDS011;746;48.688;9.428;2022-08-01T00:03:21;3.07;;;2.93;;
1509;SDS011;746;48.688;9.428;2022-08-01T00:05:43;3.43;;;2.83;;
1509;SDS011;746;48.688;9.428;2022-08-01T00:08:06;4.83;;;2.90;;
1509;SDS011;746;48.688;9.428;2022-08-01T00:10:28;3.13;;;2.97;;
1509;SDS011;746;48.688;9.428;2022-08-01T00:12:49;3.40;;;3.20;;
1509;SDS011;746;48.688;9.428;2022-08-01T00:15:11;3.00;;;2.90;;
1509;SDS011;746;48.688;9.428;2022-08-01T00:17:34;2.97;;;2.83;;
1509;SDS011;746;48.688;9.428;2022-08-01T00:19:56;3.03;;;2.80;;
1509;SDS011;746;48.688;9.428;2022-08-01T00:22:20;3.60;;;3.10;;
1509;SDS011;746;48.688;9.428;2022-08-01T00:24:41;3.20;;;3.00;;
1509;SDS011;746;48.688;9.428;2022-08-01T00:27:03;3.20;;;2.83;;
1509;SDS011;746;48.688;9.428;2022-08-01T00:29:25;3.40;;;3.10;;
1509;SDS011;746;48.688;9.428;2022-08-01T00:32:06;3.27;;;2.87;;
1509;SDS011;746;48.688;9.428;2022-08-01T00:34:28;3.10;;;3.00;;
1509;SDS011;746;48.688;9.428;2022-08-01T00:36:50;3.53;;;3.10;;
1509;SDS011;746;48.688;9.428;2022-08-01T00:39:13;3.80;;;2.90;;
1509;SDS011;746;48.688;9.428;2022-08-01T00:41:35;3.30;;;3.10;;
1509;SDS011;746;48.688;9.428;2022-08-01T00:43:56;3.07;;;2.60;;
1509;SDS011;746;48.688;9.428;2022-08-01T00:46:18;3.00;;;2.80;;
1509;SDS011;746;48.688;9.428;2022-08-01T00:48:40;3.40;;;3.20;;
1509;SDS011;746;48.688;9.428;2022-08-01T00:51:01;3.57;;;3.07;;
1509;SDS011;746;48.688;9.428;2022-08-01T00:53:24;2.87;;;2.77;;
1509;SDS011;746;48.688;9.428;2022-08-01T00:56:08;3.40;;;3.07;;
1509;SDS011;746;48.688;9.428;2022-08-01T00:58:29;4.47;;;2.87;;
1509;SDS011;746;48.688;9.428;2022-08-01T01:00:51;6.53;;;3.07;;
1509;SDS011;746;48.688;9.428;2022-08-01T01:03:13;3.17;;;2.97;;
1509;SDS011;746;48.688;9.428;2022-08-01T01:05:36;2.90;;;2.80;;
1509;SDS011;746;48.688;9.428;2022-08-01T01:08:04;3.03;;;2.83;;
1509;SDS011;746;48.688;9.428;2022-08-01T01:10:30;3.83;;;2.90;;
1509;SDS011;746;48.688;9.428;2022-08-01T01:12:59;2.70;;;2.50;;
1509;SDS011;746;48.688;9.428;2022-08-01T01:15:26;3.93;;;2.90;;
1509;SDS011;746;48.688;9.428;2022-08-01T01:17:51;2.90;;;2.80;;
1509;SDS011;746;48.688;9.428;2022-08-01T01:20:16;3.03;;;2.90;;
1509;SDS011;746;48.688;9.428;2022-08-01T01:22:45;2.90;;;2.80;;
1509;SDS011;746;48.688;9.428;2022-08-01T01:25:22;5.70;;;2.60;;
1509;SDS011;746;48.688;9.428;2022-08-01T01:27:51;4.87;;;2.70;;
1509;SDS011;746;48.688;9.428;2022-08-01T01:30:21;2.70;;;2.60;;
1509;SDS011;746;48.688;9.428;2022-08-01T01:32:46;2.97;;;2.77;;
1509;SDS011;746;48.688;9.428;2022-08-01T01:35:13;3.20;;;2.87;;
1509;SDS011;746;48.688;9.428;2022-08-01T01:37:37;3.10;;;2.90;;
1509;SDS011;746;48.688;9.428;2022-08-01T01:39:59;3.10;;;2.90;;
1509;SDS011;746;48.688;9.428;2022-08-01T01:42:22;3.20;;;3.00;;
1509;SDS011;746;48.688;9.428;2022-08-01T01:44:45;3.10;;;2.90;;
1509;SDS011;746;48.688;9.428;2022-08-01T01:47:08;3.37;;;3.10;;
1509;SDS011;746;48.688;9.428;2022-08-01T01:49:30;2.87;;;2.70;;
1509;SDS011;746;48.688;9.428;2022-08-01T01:51:54;2.73;;;2.63;;
1509;SDS011;746;48.688;9.428;2022-08-01T01:54:22;3.13;;;2.80;;
1509;SDS011;746;48.688;9.428;2022-08-01T01:56:44;3.10;;;2.90;;
1509;SDS011;746;48.688;9.428;2022-08-01T01:59:09;3.70;;;3.40;;
1509;SDS011;746;48.688;9.428;2022-08-01T02:01:33;3.20;;;3.00;;
1509;SDS011;746;48.688;9.428;2022-08-01T02:04:16;3.33;;;3.13;;
1509;SDS011;746;48.688;9.428;2022-08-01T02:06:37;3.60;;;3.07;;
1509;SDS011;746;48.688;9.428;2022-08-01T02:08:59;3.63;;;2.90;;
1509;SDS011;746;48.688;9.428;2022-08-01T02:11:22;3.57;;;3.27;;
1509;SDS011;746;48.688;9.428;2022-08-01T02:13:44;3.60;;;3.30;;
1509;SDS011;746;48.688;9.428;2022-08-01T02:16:08;3.00;;;2.90;;
1509;SDS011;746;48.688;9.428;2022-08-01T02:18:30;4.37;;;3.60;;
1509;SDS011;746;48.688;9.428;2022-08-01T02:20:54;3.20;;;3.00;;
1509;SDS011;746;48.688;9.428;2022-08-01T02:23:16;3.33;;;3.10;;
1509;SDS011;746;48.688;9.428;2022-08-01T02:25:38;4.13;;;3.10;;
1509;SDS011;746;48.688;9.428;2022-08-01T02:28:24;3.20;;;3.00;;
1509;SDS011;746;48.688;9.428;2022-08-01T02:30:48;3.50;;;3.20;;
1509;SDS011;746;48.688;9.428;2022-08-01T02:33:12;3.20;;;3.00;;
1509;SDS011;746;48.688;9.428;2022-08-01T02:35:37;3.43;;;3.20;;
1509;SDS011;746;48.688;9.428;2022-08-01T02:38:22;3.00;;;2.80;;
1509;SDS011;746;48.688;9.428;2022-08-01T02:40:45;3.20;;;3.10;;
1509;SDS011;746;48.688;9.428;2022-08-01T02:43:09;3.47;;;3.20;;
1509;SDS011;746;48.688;9.428;2022-08-01T02:45:30;3.00;;;2.90;;
1509;SDS011;746;48.688;9.428;2022-08-01T02:47:53;3.30;;;3.10;;
1509;SDS011;746;48.688;9.428;2022-08-01T02:50:18;3.40;;;3.20;;
1509;SDS011;746;48.688;9.428;2022-08-01T02:52:40;3.40;;;3.10;;
1509;SDS011;746;48.688;9.428;2022-08-01T02:55:04;3.53;;;3.23;;
1509;SDS011;746;48.688;9.428;2022-08-01T02:57:27;4.53;;;3.20;;
1509;SDS011;746;48.688;9.428;2022-08-01T03:00:10;3.77;;;3.47;;
1509;SDS011;746;48.688;9.428;2022-08-01T03:02:32;3.17;;;2.97;;
1509;SDS011;746;48.688;9.428;2022-08-01T03:04:55;3.20;;;3.00;;
1509;SDS011;746;48.688;9.428;2022-08-01T03:07:17;3.37;;;3.17;;
1509;SDS011;746;48.688;9.428;2022-08-01T03:09:41;3.60;;;3.37;;
1509;SDS011;746;48.688;9.428;2022-08-01T03:12:07;3.30;;;3.10;;
1509;SDS011;746;48.688;9.428;2022-08-01T03:14:31;3.50;;;3.30;;
1509;SDS011;746;48.688;9.428;2022-08-01T03:16:56;3.40;;;3.10;;
1509;SDS011;746;48.688;9.428;2022-08-01T03:19:18;3.80;;;3.10;;
1509;SDS011;746;48.688;9.428;2022-08-01T03:21:41;3.70;;;3.30;;
1509;SDS011;746;48.688;9.428;2022-08-01T03:24:04;4.23;;;3.40;;
1509;SDS011;746;48.688;9.428;2022-08-01T03:26:27;4.53;;;3.40;;
1509;SDS011;746;48.688;9.428;2022-08-01T03:28:52;3.67;;;3.37;;
1509;SDS011;746;48.688;9.428;2022-08-01T03:31:17;3.93;;;3.13;;
1509;SDS011;746;48.688;9.428;2022-08-01T03:33:39;3.40;;;3.20;;
1509;SDS011;746;48.688;9.428;2022-08-01T03:36:01;3.80;;;3.50;;
1509;SDS011;746;48.688;9.428;2022-08-01T03:38:24;4.47;;;3.50;;
1509;SDS011;746;48.688;9.428;2022-08-01T03:40:47;3.40;;;3.20;;
1509;SDS011;746;48.688;9.428;2022-08-01T03:43:12;3.90;;;3.60;;
1509;SDS011;746;48.688;9.428;2022-08-01T03:45:40;3.20;;;3.00;;
1509;SDS011;746;48.688;9.428;2022-08-01T03:48:05;4.07;;;3.67;;
1509;SDS011;746;48.688;9.428;2022-08-01T03:50:30;3.53;;;3.23;;
1509;SDS011;746;48.688;9.428;2022-08-01T03:52:53;4.67;;;3.37;;
1509;SDS011;746;48.688;9.428;2022-08-01T03:55:16;3.57;;;3.27;;
1509;SDS011;746;48.688;9.428;2022-08-01T03:57:37;3.57;;;3.37;;
1509;SDS011;746;48.688;9.428;2022-08-01T04:00:00;3.30;;;3.10;;
1509;SDS011;746;48.688;9.428;2022-08-01T04:02:27;3.77;;;3.47;;
1509;SDS011;746;48.688;9.428;2022-08-01T04:04:49;3.83;;;3.47;;
1509;SDS011;746;48.688;9.428;2022-08-01T04:07:21;3.57;;;3.37;;
1509;SDS011;746;48.688;9.428;2022-08-01T04:09:43;3.50;;;3.30;;
1509;SDS011;746;48.688;9.428;2022-08-01T04:12:05;3.67;;;3.37;;
1509;SDS011;746;48.688;9.428;2022-08-01T04:14:31;3.90;;;3.60;;
1509;SDS011;746;48.688;9.428;2022-08-01T04:16:52;5.47;;;3.40;;
1509;SDS011;746;48.688;9.428;2022-08-01T04:19:16;3.60;;;3.40;;
1509;SDS011;746;48.688;9.428;2022-08-01T04:21:37;3.23;;;3.03;;
1509;SDS011;746;48.688;9.428;2022-08-01T04:24:00;4.97;;;3.53;;
1509;SDS011;746;48.688;9.428;2022-08-01T04:26:25;4.10;;;3.50;;
1509;SDS011;746;48.688;9.428;2022-08-01T04:28:47;3.97;;;3.60;;
1509;SDS011;746;48.688;9.428;2022-08-01T04:31:10;4.00;;;3.70;;
1509;SDS011;746;48.688;9.428;2022-08-01T04:33:32;3.63;;;3.33;;
1509;SDS011;746;48.688;9.428;2022-08-01T04:35:57;4.43;;;3.30;;
1509;SDS011;746;48.688;9.428;2022-08-01T04:38:25;4.07;;;3.77;;
1509;SDS011;746;48.688;9.428;2022-08-01T04:40:47;3.50;;;3.30;;
1509;SDS011;746;48.688;9.428;2022-08-01T04:43:11;3.77;;;3.47;;
1509;SDS011;746;48.688;9.428;2022-08-01T04:45:34;3.80;;;3.50;;
1509;SDS011;746;48.688;9.428;2022-08-01T04:47:56;5.17;;;3.13;;
1509;SDS011;746;48.688;9.428;2022-08-01T04:50:18;4.27;;;3.40;;
1509;SDS011;746;48.688;9.428;2022-08-01T04:52:43;3.83;;;3.53;;
1509;SDS011;746;48.688;9.428;2022-08-01T04:55:06;3.70;;;3.50;;
1509;SDS011;746;48.688;9.428;2022-08-01T04:57:28;4.93;;;3.60;;
1509;SDS011;746;48.688;9.428;2022-08-01T04:59:50;3.93;;;3.63;;
1509;SDS011;746;48.688;9.428;2022-08-01T05:02:17;4.00;;;3.67;;
1509;SDS011;746;48.688;9.428;2022-08-01T05:04:39;3.80;;;3.60;;
1509;SDS011;746;48.688;9.428;2022-08-01T05:07:01;4.70;;;3.70;;
1509;SDS011;746;48.688;9.428;2022-08-01T05:09:25;3.70;;;3.40;;
1509;SDS011;746;48.688;9.428;2022-08-01T05:11:50;3.53;;;3.33;;
1509;SDS011;746;48.688;9.428;2022-08-01T05:14:12;3.90;;;3.50;;
1509;SDS011;746;48.688;9.428;2022-08-01T05:16:33;3.70;;;3.50;;
1509;SDS011;746;48.688;9.428;2022-08-01T05:18:55;3.63;;;3.37;;
1509;SDS011;746;48.688;9.428;2022-08-01T05:21:17;3.90;;;3.60;;
1509;SDS011;746;48.688;9.428;2022-08-01T05:23:38;3.67;;;3.47;;
1509;SDS011;746;48.688;9.428;2022-08-01T05:26:04;3.90;;;3.60;;
1509;SDS011;746;48.688;9.428;2022-08-01T05:28:25;4.03;;;3.73;;
1509;SDS011;746;48.688;9.428;2022-08-01T05:30:47;4.00;;;3.60;;
1509;SDS011;746;48.688;9.428;2022-08-01T05:33:08;4.13;;;3.83;;
1509;SDS011;746;48.688;9.428;2022-08-01T05:35:30;3.80;;;3.50;;
1509;SDS011;746;48.688;9.428;2022-08-01T05:38:07;3.57;;;3.30;;
1509;SDS011;746;48.688;9.428;2022-08-01T05:40:35;4.03;;;3.50;;
1509;SDS011;746;48.688;9.428;2022-08-01T05:43:00;3.47;;;3.23;;
1509;SDS011;746;48.688;9.428;2022-08-01T05:45:21;3.70;;;3.40;;
1509;SDS011;746;48.688;9.428;2022-08-01T05:47:42;3.60;;;3.40;;
1509;SDS011;746;48.688;9.428;2022-08-01T05:50:04;4.03;;;3.40;;
1509;SDS011;746;48.688;9.428;2022-08-01T05:52:26;4.00;;;3.50;;
1509;SDS011;746;48.688;9.428;2022-08-01T05:54:48;3.80;;;3.50;;
1509;SDS011;746;48.688;9.428;2022-08-01T05:57:09;4.10;;;3.80;;
1509;SDS011;746;48.688;9.428;2022-08-01T05:59:32;5.77;;;3.90;;
1509;SDS011;746;48.688;9.428;2022-08-01T06:01:54;3.80;;;3.50;;
1509;SDS011;746;48.688;9.428;2022-08-01T06:04:16;3.80;;;3.60;;
1509;SDS011;746;48.688;9.428;2022-08-01T06:06:37;4.77;;;3.70;;
1509;SDS011;746;48.688;9.428;2022-08-01T06:08:59;4.00;;;3.70;;
1509;SDS011;746;48.688;9.428;2022-08-01T06:11:21;3.87;;;3.57;;
1509;SDS011;746;48.688;9.428;2022-08-01T06:13:42;3.60;;;3.30;;
1509;SDS011;746;48.688;9.428;2022-08-01T06:16:09;3.30;;;3.10;;
1509;SDS011;746;48.688;9.428;2022-08-01T06:18:31;4.50;;;3.53;;
1509;SDS011;746;48.688;9.428;2022-08-01T06:20:52;4.10;;;3.77;;
1509;SDS011;746;48.688;9.428;2022-08-01T06:23:13;3.63;;;3.43;;
1509;SDS011;746;48.688;9.428;2022-08-01T06:25:52;3.73;;;3.43;;
1509;SDS011;746;48.688;9.428;2022-08-01T06:28:14;3.70;;;3.50;;
1509;SDS011;746;48.688;9.428;2022-08-01T06:30:35;4.70;;;3.60;;
1509;SDS011;746;48.688;9.428;2022-08-01T06:32:58;4.30;;;4.00;;
1509;SDS011;746;48.688;9.428;2022-08-01T06:35:20;4.40;;;3.90;;
1509;SDS011;746;48.688;9.428;2022-08-01T06:37:41;3.83;;;3.33;;
1509;SDS011;746;48.688;9.428;2022-08-01T06:40:05;3.90;;;3.60;;
1509;SDS011;746;48.688;9.428;2022-08-01T06:42:35;3.80;;;3.50;;
1509;SDS011;746;48.688;9.428;2022-08-01T06:44:57;3.80;;;3.60;;
1509;SDS011;746;48.688;9.428;2022-08-01T06:47:18;4.13;;;3.37;;
1509;SDS011;746;48.688;9.428;2022-08-01T06:49:41;4.47;;;4.10;;
1509;SDS011;746;48.688;9.428;2022-08-01T06:52:02;3.70;;;3.40;;
1509;SDS011;746;48.688;9.428;2022-08-01T06:54:25;3.60;;;3.40;;
1509;SDS011;746;48.688;9.428;2022-08-01T06:56:46;4.03;;;3.57;;
1509;SDS011;746;48.688;9.428;2022-08-01T06:59:07;3.73;;;3.37;;
1509;SDS011;746;48.688;9.428;2022-08-01T07:01:29;4.70;;;3.40;;
1509;SDS011;746;48.688;9.428;2022-08-01T07:03:54;3.90;;;3.60;;
1509;SDS011;746;48.688;9.428;2022-08-01T07:06:17;4.00;;;3.70;;
1509;SDS011;746;48.688;9.428;2022-08-01T07:08:38;3.90;;;3.50;;
1509;SDS011;746;48.688;9.428;2022-08-01T07:11:00;5.20;;;4.10;;
1509;SDS011;746;48.688;9.428;2022-08-01T07:13:22;4.00;;;3.70;;
1509;SDS011;746;48.688;9.428;2022-08-01T07:16:03;3.43;;;3.23;;
1509;SDS011;746;48.688;9.428;2022-08-01T07:18:24;4.03;;;3.73;;
1509;SDS011;746;48.688;9.428;2022-08-01T07:20:46;3.83;;;3.53;;
1509;SDS011;746;48.688;9.428;2022-08-01T07:23:13;3.67;;;3.47;;
1509;SDS011;746;48.688;9.428;2022-08-01T07:25:40;3.67;;;3.47;;
1509;SDS011;746;48.688;9.428;2022-08-01T07:28:12;3.80;;;3.50;;
1509;SDS011;746;48.688;9.428;2022-08-01T07:30:33;3.73;;;3.40;;
1509;SDS011;746;48.688;9.428;2022-08-01T07:32:54;3.90;;;3.67;;
1509;SDS011;746;48.688;9.428;2022-08-01T07:35:16;3.73;;;3.43;;
1509;SDS011;746;48.688;9.428;2022-08-01T07:37:38;3.33;;;3.13;;
1509;SDS011;746;48.688;9.428;2022-08-01T07:40:10;5.53;;;4.07;;
1509;SDS011;746;48.688;9.428;2022-08-01T07:42:31;3.77;;;3.57;;
1509;SDS011;746;48.688;9.428;2022-08-01T07:44:53;5.50;;;3.30;;
1509;SDS011;746;48.688;9.428;2022-08-01T07:47:14;3.40;;;3.20;;
1509;SDS011;746;48.688;9.428;2022-08-01T07:49:36;5.27;;;3.40;;
1509;SDS011;746;48.688;9.428;2022-08-01T07:51:59;4.97;;;3.67;;
1509;SDS011;746;48.688;9.428;2022-08-01T07:54:23;3.77;;;3.40;;
1509;SDS011;746;48.688;9.428;2022-08-01T07:56:54;3.47;;;3.27;;
1509;SDS011;746;48.688;9.428;2022-08-01T07:59:16;3.50;;;3.30;;
1509;SDS011;746;48.688;9.428;2022-08-01T08:01:45;3.60;;;3.40;;
1509;SDS011;746;48.688;9.428;2022-08-01T08:04:07;3.80;;;3.50;;
1509;SDS011;746;48.688;9.428;2022-08-01T08:06:29;3.60;;;3.30;;
1509;SDS011;746;48.688;9.428;2022-08-01T08:08:50;3.60;;;3.40;;
1509;SDS011;746;48.688;9.428;2022-08-01T08:11:12;3.37;;;3.07;;
1509;SDS011;746;48.688;9.428;2022-08-01T08:13:35;3.20;;;3.10;;
1509;SDS011;746;48.688;9.428;2022-08-01T08:15:57;3.30;;;3.10;;
1509;SDS011;746;48.688;9.428;2022-08-01T08:18:19;3.47;;;3.17;;
1509;SDS011;746;48.688;9.428;2022-08-01T08:20:41;4.87;;;3.50;;
1509;SDS011;746;48.688;9.428;2022-08-01T08:23:02;3.77;;;3.40;;
1509;SDS011;746;48.688;9.428;2022-08-01T08:26:01;3.63;;;3.30;;
1509;SDS011;746;48.688;9.428;2022-08-01T08:28:23;3.70;;;3.30;;
1509;SDS011;746;48.688;9.428;2022-08-01T08:30:48;3.40;;;3.10;;
1509;SDS011;746;48.688;9.428;2022-08-01T08:33:10;3.23;;;3.03;;
1509;SDS011;746;48.688;9.428;2022-08-01T08:35:32;2.90;;;2.80;;
1509;SDS011;746;48.688;9.428;2022-08-01T08:38:12;4.87;;;3.10;;
1509;SDS011;746;48.688;9.428;2022-08-01T08:40:35;3.27;;;3.10;;
1509;SDS011;746;48.688;9.428;2022-08-01T08:42:58;3.20;;;3.00;;
1509;SDS011;746;48.688;9.428;2022-08-01T08:45:20;4.10;;;2.90;;
1509;SDS011;746;48.688;9.428;2022-08-01T08:48:03;4.57;;;3.10;;
1509;SDS011;746;48.688;9.428;2022-08-01T08:50:26;3.47;;;3.17;;
1509;SDS011;746;48.688;9.428;2022-08-01T08:52:48;3.17;;;2.80;;
1509;SDS011;746;48.688;9.428;2022-08-01T08:55:11;3.20;;;2.90;;
1509;SDS011;746;48.688;9.428;2022-08-01T08:57:34;3.50;;;2.77;;
1509;SDS011;746;48.688;9.428;2022-08-01T08:59:56;4.57;;;2.47;;
1509;SDS011;746;48.688;9.428;2022-08-01T09:02:17;2.50;;;2.40;;
1509;SDS011;746;48.688;9.428;2022-08-01T09:04:40;3.03;;;2.67;;
1509;SDS011;746;48.688;9.428;2022-08-01T09:07:03;3.40;;;3.10;;
1509;SDS011;746;48.688;9.428;2022-08-01T09:09:25;2.73;;;2.60;;
1509;SDS011;746;48.688;9.428;2022-08-01T09:11:47;3.63;;;2.83;;
1509;SDS011;746;48.688;9.428;2022-08-01T09:14:17;3.20;;;3.00;;
1509;SDS011;746;48.688;9.428;2022-08-01T09:16:44;3.53;;;3.23;;
1509;SDS011;746;48.688;9.428;2022-08-01T09:19:09;4.23;;;3.30;;
1509;SDS011;746;48.688;9.428;2022-08-01T09:21:57;3.30;;;3.00;;
1509;SDS011;746;48.688;9.428;2022-08-01T09:24:19;2.90;;;2.80;;
1509;SDS011;746;48.688;9.428;2022-08-01T09:26:49;3.00;;;2.80;;
1509;SDS011;746;48.688;9.428;2022-08-01T09:29:17;3.30;;;3.10;;
1509;SDS011;746;48.688;9.428;2022-08-01T09:31:59;3.30;;;3.00;;
1509;SDS011;746;48.688;9.428;2022-08-01T09:34:27;3.30;;;3.20;;
1509;SDS011;746;48.688;9.428;2022-08-01T09:36:50;3.17;;;3.07;;
1509;SDS011;746;48.688;9.428;2022-08-01T09:39:15;3.17;;;3.00;;
1509;SDS011;746;48.688;9.428;2022-08-01T09:41:37;3.00;;;2.80;;
1509;SDS011;746;48.688;9.428;2022-08-01T09:43:59;3.43;;;3.13;;
1509;SDS011;746;48.688;9.428;2022-08-01T09:46:21;3.47;;;3.27;;
1509;SDS011;746;48.688;9.428;2022-08-01T09:48:57;3.77;;;3.10;;
1509;SDS011;746;48.688;9.428;2022-08-01T09:51:27;3.63;;;3.27;;
1509;SDS011;746;48.688;9.428;2022-08-01T09:54:10;3.43;;;3.23;;
1509;SDS011;746;48.688;9.428;2022-08-01T09:56:38;5.13;;;3.50;;
1509;SDS011;746;48.688;9.428;2022-08-01T09:59:01;4.07;;;3.77;;
1509;SDS011;746;48.688;9.428;2022-08-01T10:01:23;3.60;;;3.40;;
1509;SDS011;746;48.688;9.428;2022-08-01T10:03:45;4.13;;;3.83;;
1509;SDS011;746;48.688;9.428;2022-08-01T10:06:18;3.70;;;3.40;;
1509;SDS011;746;48.688;9.428;2022-08-01T10:08:45;3.77;;;3.57;;
1509;SDS011;746;48.688;9.428;2022-08-01T10:11:08;4.00;;;3.70;;
1509;SDS011;746;48.688;9.428;2022-08-01T10:13:32;4.47;;;4.03;;
1509;SDS011;746;48.688;9.428;2022-08-01T10:15:55;4.27;;;3.87;;
1509;SDS011;746;48.688;9.428;2022-08-01T10:18:17;4.20;;;4.00;;
1509;SDS011;746;48.688;9.428;2022-08-01T10:20:45;4.13;;;3.73;;
1509;SDS011;746;48.688;9.428;2022-08-01T10:23:06;4.63;;;4.07;;
1509;SDS011;746;48.688;9.428;2022-08-01T10:25:29;4.20;;;3.90;;
1509;SDS011;746;48.688;9.428;2022-08-01T10:28:05;4.23;;;3.90;;
1509;SDS011;746;48.688;9.428;2022-08-01T10:30:33;4.33;;;4.00;;
1509;SDS011;746;48.688;9.428;2022-08-01T10:32:55;3.87;;;3.67;;
1509;SDS011;746;48.688;9.428;2022-08-01T10:35:17;5.10;;;3.83;;
1509;SDS011;746;48.688;9.428;2022-08-01T10:37:58;4.77;;;4.47;;
1509;SDS011;746;48.688;9.428;2022-08-01T10:40:24;5.07;;;4.20;;
1509;SDS011;746;48.688;9.428;2022-08-01T10:42:49;4.57;;;4.27;;
1509;SDS011;746;48.688;9.428;2022-08-01T10:45:12;5.10;;;4.70;;
1509;SDS011;746;48.688;9.428;2022-08-01T10:47:37;4.87;;;4.47;;
1509;SDS011;746;48.688;9.428;2022-08-01T10:50:11;4.93;;;4.50;;
1509;SDS011;746;48.688;9.428;2022-08-01T10:55:49;5.20;;;4.90;;
1509;SDS011;746;48.688;9.428;2022-08-01T10:58:19;5.03;;;4.63;;
1509;SDS011;746;48.688;9.428;2022-08-01T11:00:41;6.67;;;4.90;;
1509;SDS011;746;48.688;9.428;2022-08-01T11:03:03;5.87;;;5.23;;
1509;SDS011;746;48.688;9.428;2022-08-01T11:05:27;5.57;;;5.17;;
1509;SDS011;746;48.688;9.428;2022-08-01T11:07:52;6.00;;;5.50;;
1509;SDS011;746;48.688;9.428;2022-08-01T11:10:19;5.80;;;5.37;;
1509;SDS011;746;48.688;9.428;2022-08-01T11:12:43;6.23;;;4.80;;
1509;SDS011;746;48.688;9.428;2022-08-01T11:15:21;5.13;;;4.77;;
1509;SDS011;746;48.688;9.428;2022-08-01T11:17:50;5.20;;;4.80;;
1509;SDS011;746;48.688;9.428;2022-08-01T11:20:16;5.53;;;5.13;;
1509;SDS011;746;48.688;9.428;2022-08-01T11:28:36;5.03;;;4.73;;
1509;SDS011;746;48.688;9.428;2022-08-01T11:31:28;4.70;;;4.40;;
1509;SDS011;746;48.688;9.428;2022-08-01T11:33:57;5.10;;;4.70;;
1509;SDS011;746;48.688;9.428;2022-08-01T11:36:23;5.00;;;4.70;;
1509;SDS011;746;48.688;9.428;2022-08-01T11:41:48;4.70;;;4.40;;
1509;SDS011;746;48.688;9.428;2022-08-01T11:44:11;4.40;;;4.00;;
1509;SDS011;746;48.688;9.428;2022-08-01T11:46:51;4.50;;;4.20;;
1509;SDS011;746;48.688;9.428;2022-08-01T11:49:27;4.10;;;3.90;;
1509;SDS011;746;48.688;9.428;2022-08-01T11:52:01;4.03;;;3.73;;
1509;SDS011;746;48.688;9.428;2022-08-01T11:54:25;3.63;;;3.33;;
1509;SDS011;746;48.688;9.428;2022-08-01T11:56:55;4.40;;;3.57;;
1509;SDS011;746;48.688;9.428;2022-08-01T11:59:17;3.70;;;3.40;;
1509;SDS011;746;48.688;9.428;2022-08-01T12:01:41;4.00;;;3.70;;
1509;SDS011;746;48.688;9.428;2022-08-01T12:04:03;4.00;;;3.70;;
1509;SDS011;746;48.688;9.428;2022-08-01T12:06:27;3.67;;;3.43;;
1509;SDS011;746;48.688;9.428;2022-08-01T12:08:50;3.90;;;3.70;;
1509;SDS011;746;48.688;9.428;2022-08-01T12:11:11;3.80;;;3.50;;
1509;SDS011;746;48.688;9.428;2022-08-01T12:13:39;4.10;;;3.80;;
1509;SDS011;746;48.688;9.428;2022-08-01T12:16:06;3.70;;;3.50;;
1509;SDS011;746;48.688;9.428;2022-08-01T12:18:28;4.13;;;3.77;;
1509;SDS011;746;48.688;9.428;2022-08-01T12:21:02;3.67;;;3.47;;
1509;SDS011;746;48.688;9.428;2022-08-01T12:23:24;3.80;;;3.60;;
1509;SDS011;746;48.688;9.428;2022-08-01T12:25:50;4.13;;;3.80;;
1509;SDS011;746;48.688;9.428;2022-08-01T12:28:12;4.23;;;3.50;;
1509;SDS011;746;48.688;9.428;2022-08-01T12:30:33;4.33;;;3.93;;
1509;SDS011;746;48.688;9.428;2022-08-01T12:32:55;3.60;;;3.40;;
1509;SDS011;746;48.688;9.428;2022-08-01T12:35:18;5.10;;;3.70;;
1509;SDS011;746;48.688;9.428;2022-08-01T12:37:43;4.87;;;3.80;;
1509;SDS011;746;48.688;9.428;2022-08-01T12:40:12;3.90;;;3.60;;
1509;SDS011;746;48.688;9.428;2022-08-01T12:42:37;3.80;;;3.50;;
1509;SDS011;746;48.688;9.428;2022-08-01T12:44:59;3.90;;;3.53;;
1509;SDS011;746;48.688;9.428;2022-08-01T12:47:20;3.57;;;3.37;;
1509;SDS011;746;48.688;9.428;2022-08-01T12:49:42;3.50;;;3.30;;
1509;SDS011;746;48.688;9.428;2022-08-01T12:52:05;3.50;;;3.30;;
1509;SDS011;746;48.688;9.428;2022-08-01T12:57:21;3.70;;;3.50;;
1509;SDS011;746;48.688;9.428;2022-08-01T12:59:45;3.40;;;3.20;;
1509;SDS011;746;48.688;9.428;2022-08-01T13:02:07;4.03;;;3.57;;
1509;SDS011;746;48.688;9.428;2022-08-01T13:04:31;3.47;;;3.17;;
1509;SDS011;746;48.688;9.428;2022-08-01T13:06:53;4.13;;;3.27;;
1509;SDS011;746;48.688;9.428;2022-08-01T13:09:14;3.40;;;3.20;;
1509;SDS011;746;48.688;9.428;2022-08-01T13:11:36;3.20;;;3.00;;
1509;SDS011;746;48.688;9.428;2022-08-01T13:14:26;3.93;;;3.20;;
1509;SDS011;746;48.688;9.428;2022-08-01T13:16:49;3.20;;;3.00;;
1509;SDS011;746;48.688;9.428;2022-08-01T13:19:16;3.33;;;3.10;;
1509;SDS011;746;48.688;9.428;2022-08-01T13:21:38;3.07;;;2.87;;
1509;SDS011;746;48.688;9.428;2022-08-01T13:24:12;3.43;;;3.13;;
1509;SDS011;746;48.688;9.428;2022-08-01T13:26:41;2.90;;;2.80;;
1509;SDS011;746;48.688;9.428;2022-08-01T13:29:04;3.23;;;2.93;;
1509;SDS011;746;48.688;9.428;2022-08-01T13:31:31;2.77;;;2.67;;
1509;SDS011;746;48.688;9.428;2022-08-01T13:33:54;2.77;;;2.67;;
1509;SDS011;746;48.688;9.428;2022-08-01T13:36:19;3.37;;;3.13;;
1509;SDS011;746;48.688;9.428;2022-08-01T13:38:47;3.10;;;2.80;;
1509;SDS011;746;48.688;9.428;2022-08-01T13:41:26;3.53;;;3.10;;
1509;SDS011;746;48.688;9.428;2022-08-01T13:43:48;2.77;;;2.60;;
1509;SDS011;746;48.688;9.428;2022-08-01T13:46:18;3.17;;;2.87;;
1509;SDS011;746;48.688;9.428;2022-08-01T13:48:39;3.20;;;2.90;;
1509;SDS011;746;48.688;9.428;2022-08-01T13:51:03;2.80;;;2.70;;
1509;SDS011;746;48.688;9.428;2022-08-01T13:53:40;3.13;;;2.93;;
1509;SDS011;746;48.688;9.428;2022-08-01T13:56:02;2.83;;;2.60;;
1509;SDS011;746;48.688;9.428;2022-08-01T13:58:23;2.77;;;2.67;;
1509;SDS011;746;48.688;9.428;2022-08-01T14:00:45;2.87;;;2.67;;
1509;SDS011;746;48.688;9.428;2022-08-01T14:03:06;2.97;;;2.77;;
1509;SDS011;746;48.688;9.428;2022-08-01T14:05:29;2.70;;;2.60;;
1509;SDS011;746;48.688;9.428;2022-08-01T14:07:52;3.03;;;2.60;;
1509;SDS011;746;48.688;9.428;2022-08-01T14:10:15;3.23;;;3.00;;
1509;SDS011;746;48.688;9.428;2022-08-01T14:12:39;3.23;;;2.80;;
1509;SDS011;746;48.688;9.428;2022-08-01T14:15:05;3.20;;;2.90;;
1509;SDS011;746;48.688;9.428;2022-08-01T14:17:27;2.70;;;2.60;;
1509;SDS011;746;48.688;9.428;2022-08-01T14:19:49;3.00;;;2.80;;
1509;SDS011;746;48.688;9.428;2022-08-01T14:22:10;3.17;;;2.97;;
1509;SDS011;746;48.688;9.428;2022-08-01T14:24:33;3.80;;;2.73;;
1509;SDS011;746;48.688;9.428;2022-08-01T14:26:57;8.70;;;3.70;;
1509;SDS011;746;48.688;9.428;2022-08-01T14:29:19;6.63;;;3.73;;
1509;SDS011;746;48.688;9.428;2022-08-01T14:31:40;3.37;;;3.00;;
1509;SDS011;746;48.688;9.428;2022-08-01T14:34:02;3.43;;;3.23;;
1509;SDS011;746;48.688;9.428;2022-08-01T14:36:24;4.23;;;3.40;;
1509;SDS011;746;48.688;9.428;2022-08-01T14:38:49;3.20;;;2.90;;
1509;SDS011;746;48.688;9.428;2022-08-01T14:41:12;5.17;;;2.93;;
1509;SDS011;746;48.688;9.428;2022-08-01T14:43:34;4.47;;;2.80;;
1509;SDS011;746;48.688;9.428;2022-08-01T14:45:55;2.93;;;2.60;;
1509;SDS011;746;48.688;9.428;2022-08-01T14:48:16;3.20;;;2.90;;
1509;SDS011;746;48.688;9.428;2022-08-01T14:50:38;2.83;;;2.70;;
1509;SDS011;746;48.688;9.428;2022-08-01T14:52:59;3.13;;;2.57;;
1509;SDS011;746;48.688;9.428;2022-08-01T14:55:20;3.23;;;3.03;;
1509;SDS011;746;48.688;9.428;2022-08-01T14:57:46;3.23;;;3.03;;
1509;SDS011;746;48.688;9.428;2022-08-01T15:00:08;3.13;;;2.90;;
1509;SDS011;746;48.688;9.428;2022-08-01T15:02:32;3.50;;;3.20;;
1509;SDS011;746;48.688;9.428;2022-08-01T15:04:54;3.30;;;2.87;;
1509;SDS011;746;48.688;9.428;2022-08-01T15:07:15;3.93;;;3.10;;
1509;SDS011;746;48.688;9.428;2022-08-01T15:09:37;3.67;;;3.37;;
1509;SDS011;746;48.688;9.428;2022-08-01T15:11:59;3.17;;;2.97;;
1509;SDS011;746;48.688;9.428;2022-08-01T15:14:21;5.47;;;3.53;;
1509;SDS011;746;48.688;9.428;2022-08-01T15:17:00;2.60;;;2.50;;
1509;SDS011;746;48.688;9.428;2022-08-01T15:19:22;2.70;;;2.50;;
1509;SDS011;746;48.688;9.428;2022-08-01T15:21:43;3.00;;;2.40;;
1509;SDS011;746;48.688;9.428;2022-08-01T15:24:05;2.50;;;2.40;;
1509;SDS011;746;48.688;9.428;2022-08-01T15:26:27;2.77;;;2.53;;
1509;SDS011;746;48.688;9.428;2022-08-01T15:28:49;3.20;;;2.30;;